createdAt,value
2018-12-04T00:01:56.466Z,10.22
2018-12-04T00:04:26.706Z,10.29
2018-12-04T00:06:57.003Z,10.29
2018-12-04T00:09:27.351Z,10.20
2018-12-04T00:11:59.343Z,10.21
2018-12-04T00:14:29.575Z,10.17
2018-12-04T00:16:59.875Z,10.20
2018-12-04T00:19:30.155Z,10.15
2018-12-04T00:22:00.482Z,10.16
2018-12-04T00:24:30.679Z,10.14
2018-12-04T00:27:01.160Z,10.12
2018-12-04T00:29:31.635Z,10.18
2018-12-04T00:32:01.831Z,10.13
2018-12-04T00:34:32.177Z,10.17
2018-12-04T00:37:02.515Z,10.24
2018-12-04T00:39:32.812Z,10.25
2018-12-04T00:42:03.563Z,10.35
2018-12-04T00:44:33.981Z,10.33
2018-12-04T00:47:05.556Z,10.31
2018-12-04T00:49:35.966Z,10.31
2018-12-04T00:52:06.462Z,10.38
2018-12-04T00:54:36.787Z,10.45
2018-12-04T00:57:07.139Z,10.41
2018-12-04T00:59:37.578Z,10.28
2018-12-04T01:02:07.801Z,10.55
2018-12-04T01:04:38.004Z,10.39
2018-12-04T01:07:08.458Z,10.41
2018-12-04T01:09:38.671Z,10.29
2018-12-04T01:12:09.187Z,10.33
2018-12-04T01:14:39.636Z,10.25
2018-12-04T01:17:10.058Z,10.26
2018-12-04T01:19:40.378Z,10.33
2018-12-04T01:22:10.587Z,10.30
2018-12-04T01:24:40.891Z,10.29
2018-12-04T01:27:11.132Z,10.39
2018-12-04T01:29:41.504Z,10.32
2018-12-04T01:32:11.884Z,10.28
2018-12-04T01:34:42.541Z,10.29
2018-12-04T01:37:12.959Z,10.37
2018-12-04T01:39:43.474Z,10.44
2018-12-04T01:42:14.734Z,10.35
2018-12-04T01:44:45.030Z,10.32
2018-12-04T01:47:15.470Z,10.32
2018-12-04T01:49:45.814Z,10.31
2018-12-04T01:52:16.513Z,10.43
2018-12-04T01:54:46.734Z,10.37
2018-12-04T01:57:17.124Z,10.33
2018-12-04T01:59:47.357Z,10.35
2018-12-04T02:02:17.720Z,10.42
2018-12-04T02:04:48.137Z,10.33
2018-12-04T02:07:18.420Z,10.40
2018-12-04T02:09:48.682Z,10.33
2018-12-04T02:12:19.018Z,10.36
2018-12-04T02:14:49.606Z,10.41
2018-12-04T02:17:20.110Z,10.35
2018-12-04T02:19:50.492Z,10.31
2018-12-04T02:22:20.822Z,10.25
2018-12-04T02:24:50.992Z,10.40
2018-12-04T02:27:21.286Z,10.27
2018-12-04T02:29:51.460Z,10.23
2018-12-04T02:32:21.686Z,10.29
2018-12-04T02:34:51.955Z,10.42
2018-12-04T02:37:22.208Z,10.43
2018-12-04T02:39:52.616Z,10.35
2018-12-04T02:42:26.012Z,10.36
2018-12-04T02:44:56.350Z,10.40
2018-12-04T02:47:26.738Z,10.39
2018-12-04T02:49:57.008Z,10.31
2018-12-04T02:52:27.280Z,10.28
2018-12-04T02:54:57.548Z,10.26
2018-12-04T02:57:27.792Z,10.20
2018-12-04T02:59:58.316Z,10.20
2018-12-04T03:02:28.608Z,10.14
2018-12-04T03:04:58.794Z,10.28
2018-12-04T03:07:29.171Z,10.13
2018-12-04T03:09:59.388Z,10.02
2018-12-04T03:12:29.620Z,9.99
2018-12-04T03:14:59.937Z,10.00
2018-12-04T03:17:30.187Z,9.89
2018-12-04T03:20:00.766Z,9.82
2018-12-04T03:22:31.141Z,9.78
2018-12-04T03:25:01.314Z,9.78
2018-12-04T03:27:31.650Z,9.89
2018-12-04T03:30:03.606Z,9.82
2018-12-04T03:32:34.262Z,9.69
2018-12-04T03:35:05.138Z,9.67
2018-12-04T03:37:35.345Z,9.77
2018-12-04T03:40:08.228Z,9.66
2018-12-04T03:42:38.524Z,9.69
2018-12-04T03:45:10.400Z,9.64
2018-12-04T03:47:40.863Z,9.63
2018-12-04T03:50:11.108Z,9.50
2018-12-04T03:52:41.435Z,9.44
2018-12-04T03:55:11.733Z,9.37
2018-12-04T03:57:42.210Z,9.50
2018-12-04T04:00:12.690Z,9.38
2018-12-04T04:02:42.952Z,9.43
2018-12-04T04:05:13.246Z,9.43
2018-12-04T04:07:43.539Z,9.43
2018-12-04T04:10:13.810Z,9.39
2018-12-04T04:12:44.130Z,9.43
2018-12-04T04:15:14.319Z,9.45
2018-12-04T04:17:44.690Z,9.28
2018-12-04T04:20:14.999Z,9.23
2018-12-04T04:22:45.347Z,9.26
2018-12-04T04:25:16.427Z,9.22
2018-12-04T04:27:46.793Z,9.15
2018-12-04T04:30:17.016Z,9.14
2018-12-04T04:32:47.368Z,9.19
2018-12-04T04:35:19.610Z,9.13
2018-12-04T04:37:49.832Z,9.12
2018-12-04T04:40:20.150Z,9.16
2018-12-04T04:42:50.386Z,9.14
2018-12-04T04:45:20.582Z,9.20
2018-12-04T04:47:50.922Z,9.12
2018-12-04T04:50:21.247Z,9.17
2018-12-04T04:52:51.617Z,9.34
2018-12-04T04:55:21.902Z,9.33
2018-12-04T04:57:52.438Z,9.32
2018-12-04T05:00:22.799Z,9.31
2018-12-04T05:02:53.130Z,9.22
2018-12-04T05:05:23.379Z,9.10
2018-12-04T05:07:53.739Z,9.24
2018-12-04T05:10:24.241Z,9.17
2018-12-04T05:12:54.836Z,9.26
2018-12-04T05:15:25.187Z,9.14
2018-12-04T05:17:55.653Z,9.21
2018-12-04T05:20:27.104Z,9.25
2018-12-04T05:22:57.627Z,9.29
2018-12-04T05:25:27.977Z,9.14
2018-12-04T05:27:58.262Z,9.13
2018-12-04T05:30:28.543Z,9.17
2018-12-04T05:32:59.179Z,9.11
2018-12-04T05:35:29.384Z,9.10
2018-12-04T05:37:59.651Z,9.12
2018-12-04T05:40:29.939Z,9.03
2018-12-04T05:43:00.167Z,8.99
2018-12-04T05:45:30.488Z,9.04
2018-12-04T05:48:00.759Z,9.17
2018-12-04T05:50:31.139Z,9.00
2018-12-04T05:53:18.257Z,9.17
2018-12-04T05:55:48.576Z,8.99
2018-12-04T05:58:18.943Z,9.12
2018-12-04T06:00:50.367Z,9.07
2018-12-04T06:03:20.599Z,9.12
2018-12-04T06:05:50.856Z,8.87
2018-12-04T06:08:21.222Z,9.09
2018-12-04T06:10:51.442Z,9.28
2018-12-04T06:13:21.848Z,9.05
2018-12-04T06:15:52.058Z,9.04
2018-12-04T06:18:22.435Z,9.10
2018-12-04T06:20:52.738Z,9.08
2018-12-04T06:23:23.073Z,8.88
2018-12-04T06:25:53.388Z,8.89
2018-12-04T06:28:23.727Z,9.00
2018-12-04T06:30:54.027Z,9.03
2018-12-04T06:33:24.346Z,8.90
2018-12-04T06:35:54.676Z,8.86
2018-12-04T06:38:24.898Z,8.97
2018-12-04T06:40:55.205Z,8.93
2018-12-04T06:43:25.450Z,8.79
2018-12-04T06:45:55.662Z,8.77
2018-12-04T06:48:26.103Z,8.93
2018-12-04T06:50:56.382Z,8.94
2018-12-04T06:53:26.650Z,8.85
2018-12-04T06:55:56.827Z,8.96
2018-12-04T06:58:27.269Z,8.94
2018-12-04T07:00:57.508Z,8.91
2018-12-04T07:03:27.855Z,9.09
2018-12-04T07:05:58.563Z,9.00
2018-12-04T07:08:29.157Z,8.90
2018-12-04T07:10:59.421Z,8.96
2018-12-04T07:13:29.844Z,9.13
2018-12-04T07:16:00.229Z,9.40
2018-12-04T07:18:31.385Z,9.25
2018-12-04T07:21:01.623Z,9.59
2018-12-04T07:23:32.060Z,9.39
2018-12-04T07:26:02.562Z,9.34
2018-12-04T07:28:32.791Z,9.85
2018-12-04T07:31:03.018Z,9.62
2018-12-04T07:33:33.500Z,9.50
2018-12-04T07:36:03.957Z,9.35
2018-12-04T07:38:34.189Z,9.63
2018-12-04T07:41:04.602Z,9.56
2018-12-04T07:43:34.969Z,9.34
2018-12-04T07:46:05.126Z,9.23
2018-12-04T07:48:35.667Z,9.29
2018-12-04T07:51:05.917Z,9.40
2018-12-04T07:53:36.343Z,9.57
2018-12-04T07:56:06.665Z,9.43
2018-12-04T07:58:37.038Z,9.34
2018-12-04T08:01:07.440Z,9.43
2018-12-04T08:03:37.777Z,9.48
2018-12-04T08:06:11.013Z,9.41
2018-12-04T08:08:41.402Z,9.42
2018-12-04T08:11:11.758Z,9.57
2018-12-04T08:13:41.951Z,9.63
2018-12-04T08:16:12.403Z,9.53
2018-12-04T08:18:42.660Z,9.60
2018-12-04T08:21:13.068Z,9.50
2018-12-04T08:23:43.759Z,9.56
2018-12-04T08:26:14.146Z,9.54
2018-12-04T08:28:44.369Z,9.57
2018-12-04T08:31:14.586Z,9.47
2018-12-04T08:33:44.958Z,9.57
2018-12-04T08:36:15.248Z,9.63
2018-12-04T08:38:45.614Z,9.75
2018-12-04T08:41:15.843Z,9.73
2018-12-04T08:43:46.099Z,9.66
2018-12-04T08:46:16.299Z,9.68
2018-12-04T08:48:46.689Z,9.65
2018-12-04T08:51:17.158Z,9.74
2018-12-04T08:53:47.383Z,9.64
2018-12-04T08:56:17.791Z,9.56
2018-12-04T09:01:27.269Z,9.49
2018-12-04T09:03:59.290Z,9.45
2018-12-04T09:06:33.716Z,9.35
2018-12-04T09:09:07.053Z,9.31
2018-12-04T09:11:39.287Z,9.44
2018-12-04T09:14:09.708Z,9.53
2018-12-04T09:16:40.062Z,9.49
2018-12-04T09:19:10.545Z,9.32
2018-12-04T09:21:41.000Z,9.43
2018-12-04T09:24:11.478Z,9.32
2018-12-04T09:26:41.981Z,9.23
2018-12-04T09:29:12.496Z,9.18
2018-12-04T09:31:43.113Z,9.20
2018-12-04T09:34:13.715Z,9.28
2018-12-04T09:36:45.587Z,9.29
2018-12-04T09:39:15.947Z,9.56
2018-12-04T09:41:46.262Z,9.68
2018-12-04T09:44:16.624Z,9.85
2018-12-04T09:46:47.122Z,9.90
2018-12-04T09:49:17.531Z,9.88
2018-12-04T09:51:48.067Z,9.76
2018-12-04T09:54:18.514Z,9.86
2018-12-04T09:56:49.008Z,9.61
2018-12-04T09:59:19.399Z,9.64
2018-12-04T10:01:49.789Z,9.55
2018-12-04T10:04:19.984Z,9.53
2018-12-04T10:06:50.310Z,9.45
2018-12-04T10:09:20.641Z,9.28
2018-12-04T10:11:51.044Z,9.20
2018-12-04T10:14:21.393Z,9.41
2018-12-04T10:16:51.729Z,9.45
2018-12-04T10:19:22.036Z,9.34
2018-12-04T10:21:52.441Z,9.17
2018-12-04T10:24:22.820Z,9.25
2018-12-04T10:26:57.467Z,9.30
2018-12-04T10:29:28.053Z,9.26
2018-12-04T10:31:58.556Z,9.14
2018-12-04T10:34:29.018Z,9.27
2018-12-04T10:36:59.430Z,9.20
2018-12-04T10:39:29.652Z,9.17
2018-12-04T10:42:00.017Z,9.27
2018-12-04T10:44:30.372Z,9.33
2018-12-04T10:47:00.574Z,9.24
2018-12-04T10:49:32.020Z,9.38
2018-12-04T10:52:02.364Z,9.31
2018-12-04T10:54:32.794Z,9.20
2018-12-04T10:57:03.301Z,9.20
2018-12-04T10:59:33.767Z,9.23
2018-12-04T11:02:09.280Z,9.23
2018-12-04T11:04:39.634Z,9.36
2018-12-04T11:07:09.943Z,9.29
2018-12-04T11:09:40.284Z,9.14
2018-12-04T11:12:12.368Z,9.19
2018-12-04T11:14:42.953Z,9.32
2018-12-04T11:17:13.295Z,9.27
2018-12-04T11:19:43.654Z,9.20
2018-12-04T11:22:13.964Z,9.35
2018-12-04T11:24:44.350Z,9.31
2018-12-04T11:27:14.780Z,9.16
2018-12-04T11:29:45.307Z,9.21
2018-12-04T11:32:15.801Z,9.37
2018-12-04T11:34:46.288Z,9.00
2018-12-04T11:37:16.567Z,9.10
2018-12-04T11:39:46.837Z,9.16
2018-12-04T11:42:17.226Z,9.10
2018-12-04T11:44:48.615Z,9.10
2018-12-04T11:47:19.721Z,9.29
2018-12-04T11:49:50.172Z,9.36
2018-12-04T11:52:20.601Z,9.58
2018-12-04T11:54:51.134Z,9.52
2018-12-04T11:57:22.453Z,9.45
2018-12-04T11:59:52.915Z,9.32
2018-12-04T12:02:23.215Z,9.34
2018-12-04T12:04:53.527Z,9.31
2018-12-04T12:07:25.983Z,9.19
2018-12-04T12:09:56.177Z,9.37
2018-12-04T12:12:26.428Z,9.10
2018-12-04T12:14:56.685Z,9.36
2018-12-04T12:17:27.121Z,9.47
2018-12-04T12:19:57.538Z,9.75
2018-12-04T12:22:27.930Z,9.79
2018-12-04T12:24:58.326Z,9.72
2018-12-04T12:27:28.694Z,9.56
2018-12-04T12:29:59.218Z,9.59
2018-12-04T12:32:29.780Z,9.55
2018-12-04T12:35:00.094Z,9.31
2018-12-04T12:37:30.497Z,9.46
2018-12-04T12:40:00.943Z,9.59
2018-12-04T12:42:31.527Z,9.56
2018-12-04T12:45:01.891Z,9.47
2018-12-04T12:47:34.444Z,9.43
2018-12-04T12:50:06.160Z,9.45
2018-12-04T12:52:36.409Z,9.40
2018-12-04T12:55:07.388Z,9.36
2018-12-04T12:57:37.693Z,9.23
2018-12-04T13:00:10.295Z,9.43
2018-12-04T13:02:41.514Z,9.47
2018-12-04T13:05:11.940Z,9.39
2018-12-04T13:07:42.372Z,9.36
2018-12-04T13:10:12.713Z,9.38
2018-12-04T13:12:43.090Z,9.39
2018-12-04T13:15:13.336Z,9.19
2018-12-04T13:17:43.753Z,9.30
2018-12-04T13:20:14.174Z,9.25
2018-12-04T13:22:44.412Z,9.16
2018-12-04T13:25:14.845Z,9.02
2018-12-04T13:27:45.134Z,9.16
2018-12-04T13:30:15.495Z,9.09
2018-12-04T13:32:46.944Z,9.20
2018-12-04T13:35:17.243Z,9.31
2018-12-04T13:37:47.473Z,9.23
2018-12-04T13:40:17.750Z,9.20
2018-12-04T13:42:48.001Z,9.22
2018-12-04T13:45:18.606Z,9.28
2018-12-04T13:47:48.842Z,9.17
2018-12-04T13:50:19.182Z,9.28
2018-12-04T13:52:49.521Z,9.19
2018-12-04T13:55:19.874Z,9.11
2018-12-04T13:57:50.817Z,9.11
2018-12-04T14:00:21.599Z,9.02
2018-12-04T14:02:52.118Z,9.09
2018-12-04T14:05:22.479Z,9.09
2018-12-04T14:07:52.779Z,9.17
2018-12-04T14:10:23.171Z,9.26
2018-12-04T14:12:53.525Z,9.12
2018-12-04T14:15:23.767Z,9.25
2018-12-04T14:17:53.965Z,9.10
2018-12-04T14:20:24.434Z,8.84
2018-12-04T14:22:54.904Z,8.53
2018-12-04T14:25:25.107Z,8.30
2018-12-04T14:27:55.382Z,8.26
2018-12-04T14:30:25.801Z,8.04
2018-12-04T14:32:56.164Z,7.79
2018-12-04T14:35:26.465Z,7.75
2018-12-04T14:37:58.098Z,7.80
2018-12-04T14:40:28.457Z,7.95
2018-12-04T14:42:58.727Z,7.77
2018-12-04T14:45:29.301Z,7.84
2018-12-04T14:47:59.760Z,8.01
2018-12-04T14:50:30.415Z,7.92
2018-12-04T14:53:00.862Z,8.05
2018-12-04T14:55:31.688Z,7.90
2018-12-04T14:58:01.953Z,7.92
2018-12-04T15:00:32.472Z,7.91
2018-12-04T15:03:03.213Z,7.91
2018-12-04T15:05:33.722Z,7.89
2018-12-04T15:08:04.150Z,7.86
2018-12-04T15:10:34.691Z,7.92
2018-12-04T15:13:05.337Z,8.09
2018-12-04T15:15:35.772Z,8.05
2018-12-04T15:18:06.076Z,8.13
2018-12-04T15:20:36.459Z,7.91
2018-12-04T15:23:07.008Z,7.92
2018-12-04T15:25:37.478Z,7.97
2018-12-04T15:28:07.988Z,7.87
2018-12-04T15:30:38.686Z,7.88
2018-12-04T15:33:09.196Z,7.85
2018-12-04T15:35:39.526Z,7.96
2018-12-04T15:38:10.234Z,8.13
2018-12-04T15:40:40.582Z,8.39
2018-12-04T15:43:10.922Z,8.10
2018-12-04T15:45:41.351Z,7.99
2018-12-04T15:48:11.694Z,7.89
2018-12-04T15:50:42.010Z,7.82
2018-12-04T15:53:12.448Z,7.96
2018-12-04T15:55:44.255Z,8.04
2018-12-04T15:58:14.694Z,7.88
2018-12-04T16:00:44.917Z,7.73
2018-12-04T16:03:15.302Z,7.72
2018-12-04T16:05:45.565Z,7.65
2018-12-04T16:08:15.983Z,7.69
2018-12-04T16:10:46.226Z,7.75
2018-12-04T16:13:16.803Z,7.75
2018-12-04T16:15:47.374Z,7.77
2018-12-04T16:18:17.668Z,7.82
2018-12-04T16:20:48.761Z,7.66
2018-12-04T16:23:19.241Z,7.64
2018-12-04T16:25:49.683Z,7.61
2018-12-04T16:28:20.009Z,7.73
2018-12-04T16:30:50.363Z,7.74
2018-12-04T16:33:21.786Z,7.83
2018-12-04T16:35:52.190Z,7.59
2018-12-04T16:38:22.436Z,7.64
2018-12-04T16:40:52.815Z,7.44
2018-12-04T16:43:23.205Z,7.54
2018-12-04T16:45:53.759Z,7.29
2018-12-04T16:48:24.189Z,7.32
2018-12-04T16:50:54.603Z,7.33
2018-12-04T16:53:25.001Z,7.53
2018-12-04T16:55:55.885Z,7.37
2018-12-04T16:58:26.230Z,7.46
2018-12-04T17:00:56.715Z,7.28
2018-12-04T17:03:27.073Z,7.23
2018-12-04T17:05:57.333Z,7.25
2018-12-04T17:08:27.733Z,7.09
2018-12-04T17:10:58.070Z,7.43
2018-12-04T17:13:28.487Z,7.34
2018-12-04T17:15:59.165Z,7.35
2018-12-04T17:18:37.499Z,7.33
2018-12-04T17:21:03.023Z,7.26
2018-12-04T17:23:34.261Z,7.33
2018-12-04T17:26:04.793Z,7.22
2018-12-04T17:28:35.125Z,7.34
2018-12-04T17:31:05.369Z,7.46
2018-12-04T17:33:36.300Z,7.29
2018-12-04T17:36:06.747Z,7.13
2018-12-04T17:38:37.216Z,7.16
2018-12-04T17:41:07.455Z,7.23
2018-12-04T17:43:39.138Z,7.21
2018-12-04T17:46:09.447Z,7.34
2018-12-04T17:48:39.882Z,7.25
2018-12-04T17:51:10.591Z,7.18
2018-12-04T17:53:42.251Z,7.14
2018-12-04T17:56:14.684Z,7.13
2018-12-04T17:58:44.949Z,7.25
2018-12-04T18:01:15.259Z,7.00
2018-12-04T18:03:47.478Z,6.94
2018-12-04T18:06:17.901Z,7.07
2018-12-04T18:08:48.294Z,7.04
2018-12-04T18:11:20.658Z,7.24
2018-12-04T18:13:52.747Z,7.29
2018-12-04T18:16:23.185Z,7.16
2018-12-04T18:18:53.571Z,6.97
2018-12-04T18:21:23.914Z,7.19
2018-12-04T18:23:55.641Z,7.07
2018-12-04T18:26:33.333Z,7.07
2018-12-04T18:29:05.511Z,6.97
2018-12-04T18:31:35.966Z,6.84
2018-12-04T18:34:06.229Z,6.97
2018-12-04T18:36:36.436Z,7.01
2018-12-04T18:39:08.890Z,6.84
2018-12-04T18:41:40.880Z,7.13
2018-12-04T18:44:14.191Z,7.14
2018-12-04T18:46:44.534Z,7.01
2018-12-04T18:49:14.786Z,7.05
2018-12-04T18:51:45.455Z,6.69
2018-12-04T18:54:15.982Z,6.75
2018-12-04T18:56:46.243Z,6.93
2018-12-04T18:59:16.786Z,6.82
2018-12-04T19:01:47.291Z,6.61
2018-12-04T19:04:17.535Z,6.76
2018-12-04T19:06:47.785Z,6.52
2018-12-04T19:09:18.247Z,6.55
2018-12-04T19:11:48.490Z,6.64
2018-12-04T19:14:18.709Z,6.75
2018-12-04T19:16:49.033Z,6.62
2018-12-04T19:19:19.270Z,6.73
2018-12-04T19:21:49.729Z,6.57
2018-12-04T19:24:19.904Z,6.54
2018-12-04T19:29:29.843Z,6.53
2018-12-04T19:32:00.463Z,6.62
2018-12-04T19:34:30.929Z,6.63
2018-12-04T19:37:01.344Z,6.65
2018-12-04T19:39:31.863Z,6.57
2018-12-04T19:42:02.251Z,6.58
2018-12-04T19:44:32.830Z,6.63
2018-12-04T19:47:03.500Z,6.58
2018-12-04T19:49:34.023Z,6.71
2018-12-04T19:52:04.710Z,6.61
2018-12-04T19:54:35.351Z,6.60
2018-12-04T19:57:05.907Z,6.55
2018-12-04T19:59:36.516Z,6.33
2018-12-04T20:02:07.038Z,6.49
2018-12-04T20:04:37.772Z,6.54
2018-12-04T20:07:08.530Z,6.52
2018-12-04T20:09:39.238Z,6.56
2018-12-04T20:12:09.872Z,6.59
2018-12-04T20:14:40.486Z,6.63
2018-12-04T20:17:11.021Z,6.52
2018-12-04T20:19:41.269Z,6.45
2018-12-04T20:22:12.037Z,6.64
2018-12-04T20:24:43.529Z,6.63
2018-12-04T20:27:14.585Z,6.66
2018-12-04T20:29:44.907Z,6.66
2018-12-04T20:32:15.268Z,6.73
2018-12-04T20:34:45.639Z,6.60
2018-12-04T20:37:18.028Z,6.48
2018-12-04T20:39:48.553Z,6.51
2018-12-04T20:42:23.228Z,6.44
2018-12-04T20:44:51.867Z,6.39
2018-12-04T20:47:22.088Z,6.41
2018-12-04T20:49:52.508Z,6.52
2018-12-04T20:52:22.743Z,6.52
2018-12-04T20:54:53.070Z,6.49
2018-12-04T20:57:23.514Z,6.44
2018-12-04T20:59:53.790Z,6.39
2018-12-04T21:02:24.298Z,6.32
2018-12-04T21:04:55.681Z,6.67
2018-12-04T21:07:27.261Z,6.53
2018-12-04T21:09:57.789Z,6.50
2018-12-04T21:12:28.716Z,6.37
2018-12-04T21:14:59.409Z,6.53
2018-12-04T21:17:29.818Z,6.56
2018-12-04T21:20:00.074Z,6.49
2018-12-04T21:22:30.532Z,6.40
2018-12-04T21:25:00.731Z,6.27
2018-12-04T21:27:36.182Z,6.42
2018-12-04T21:30:12.425Z,6.37
2018-12-04T21:32:48.067Z,6.44
2018-12-04T21:35:23.494Z,6.31
2018-12-04T21:37:59.017Z,6.28
2018-12-04T21:40:34.647Z,6.21
2018-12-04T21:43:11.030Z,6.26
2018-12-04T21:45:46.400Z,6.37
2018-12-04T21:48:16.855Z,6.37
2018-12-04T21:50:47.190Z,6.29
2018-12-04T21:53:17.528Z,6.33
2018-12-04T21:55:47.909Z,6.24
2018-12-04T21:58:24.385Z,6.26
2018-12-04T22:00:54.841Z,6.00
2018-12-04T22:03:25.180Z,5.91
2018-12-04T22:05:55.654Z,6.12
2018-12-04T22:08:26.011Z,6.26
2018-12-04T22:10:56.320Z,6.30
2018-12-04T22:13:26.758Z,6.34
2018-12-04T22:15:57.037Z,6.64
2018-12-04T22:18:27.465Z,6.62
2018-12-04T22:20:57.743Z,6.50
2018-12-04T22:23:28.038Z,6.57
2018-12-04T22:25:58.457Z,6.26
2018-12-04T22:28:28.914Z,6.32
2018-12-04T22:30:59.185Z,6.05
2018-12-04T22:33:29.435Z,5.95
2018-12-04T22:35:59.839Z,5.99
2018-12-04T22:38:30.201Z,6.28
2018-12-04T22:41:00.679Z,5.87
2018-12-04T22:43:30.904Z,6.02
2018-12-04T22:46:01.325Z,5.97
2018-12-04T22:48:31.557Z,5.87
2018-12-04T22:51:01.812Z,6.20
2018-12-04T22:53:32.206Z,6.24
2018-12-04T22:56:02.532Z,6.26
2018-12-04T22:58:32.815Z,6.20
2018-12-04T23:01:03.666Z,6.15
2018-12-04T23:03:35.869Z,6.13
2018-12-04T23:06:06.181Z,6.04
2018-12-04T23:11:23.302Z,6.04
2018-12-04T23:13:53.580Z,6.04
2018-12-04T23:16:24.313Z,6.00
2018-12-04T23:18:54.677Z,6.07
2018-12-04T23:21:25.011Z,5.92
2018-12-04T23:23:55.467Z,5.92
2018-12-04T23:26:25.967Z,5.99
2018-12-04T23:28:56.410Z,5.98
2018-12-04T23:31:26.727Z,6.07
2018-12-04T23:33:57.003Z,6.04
2018-12-04T23:36:27.277Z,5.91
2018-12-04T23:38:57.587Z,5.93
2018-12-04T23:41:27.775Z,5.94
2018-12-04T23:43:58.147Z,5.88
2018-12-04T23:46:28.545Z,5.87
2018-12-04T23:48:58.779Z,5.93
2018-12-04T23:51:28.989Z,5.61
2018-12-04T23:53:59.223Z,5.71
2018-12-04T23:56:30.594Z,5.70
2018-12-04T23:59:01.095Z,5.83
